Time;durP1;ratioP1;P1;durP2;ratioP2;P2;SDS_P1;SDS_P2;PMS_P1;PMS_P2;Temp;Humidity;BMP_temperature;BMP_pressure;BME280_temperature;BME280_humidity;BME280_pressure;Samples;Min_cycle;Max_cycle;Signal;HPM_P1;HPM_P2
2023/04/11 00:00:27;;;;;;;;;;;10.00;99.90;;;;;;5074026;28;19954;-71
2023/04/11 00:02:53;;;;;;;;;;;10.10;99.90;;;;;;5075519;28;20005;-72
2023/04/11 00:05:19;;;;;;;;;;;10.00;99.90;;;;;;5074355;28;19909;-72
2023/04/11 00:07:45;;;;;;;;;;;10.10;99.90;;;;;;5073767;28;19999;-72
2023/04/11 00:10:11;;;;;;;;;;;10.00;99.90;;;;;;5075028;28;20329;-72
2023/04/11 00:12:36;;;;;;;;;;;10.10;99.90;;;;;;5073271;28;19916;-72
2023/04/11 00:15:02;;;;;;;;;;;10.00;99.90;;;;;;5072850;28;20237;-71
2023/04/11 00:17:30;;;;;;;;;;;9.90;99.90;;;;;;5073526;28;19908;-73
2023/04/11 00:19:57;;;;;;;;;;;9.80;99.90;;;;;;5074646;28;19912;-72
2023/04/11 00:22:23;;;;;;;;;;;9.70;99.90;;;;;;5074206;28;19999;-73
2023/04/11 00:24:49;;;;;;;;;;;9.60;99.90;;;;;;5074379;28;19917;-73
2023/04/11 00:27:14;;;;;;;;;;;9.60;99.90;;;;;;5073458;28;19909;-72
2023/04/11 00:29:40;;;;;;;;;;;9.50;99.90;;;;;;5074024;28;19913;-72
2023/04/11 00:32:06;;;;;;;;;;;9.50;99.90;;;;;;5073728;28;19908;-72
2023/04/11 00:34:33;;;;;;;;;;;9.50;99.90;;;;;;5072468;28;20380;-72
2023/04/11 00:36:58;;;;;;;;;;;9.50;99.90;;;;;;5072444;28;19915;-72
2023/04/11 00:39:25;;;;;;;;;;;9.40;99.90;;;;;;5074504;28;20293;-72
2023/04/11 00:41:51;;;;;;;;;;;9.40;99.90;;;;;;5073761;28;20345;-73
2023/04/11 00:44:16;;;;;;;;;;;9.40;99.90;;;;;;5072670;28;19908;-72
2023/04/11 00:46:44;;;;;;;;;;;9.40;99.90;;;;;;5074216;28;19912;-72
2023/04/11 00:49:10;;;;;;;;;;;9.40;99.90;;;;;;5072694;28;19912;-73
2023/04/11 00:51:36;;;;;;;;;;;9.40;99.90;;;;;;5073999;28;20332;-73
2023/04/11 00:54:02;;;;;;;;;;;9.40;99.90;;;;;;5072540;28;19908;-72
2023/04/11 00:56:28;;;;;;;;;;;9.30;99.90;;;;;;5073555;28;19909;-73
2023/04/11 00:58:54;;;;;;;;;;;9.40;99.90;;;;;;5074018;28;19916;-74
2023/04/11 01:01:22;;;;;;;;;;;9.30;99.90;;;;;;5074135;28;20450;-73
2023/04/11 01:03:47;;;;;;;;;;;9.30;99.90;;;;;;5073708;28;19908;-73
2023/04/11 01:06:14;;;;;;;;;;;9.30;99.90;;;;;;5073617;28;19970;-72
2023/04/11 01:08:40;;;;;;;;;;;9.40;99.90;;;;;;5074002;28;19908;-72
2023/04/11 01:11:07;;;;;;;;;;;9.40;99.90;;;;;;5072470;28;19908;-73
2023/04/11 01:13:34;;;;;;;;;;;9.30;99.90;;;;;;5073875;28;19919;-72
2023/04/11 01:16:00;;;;;;;;;;;9.30;99.90;;;;;;5072227;28;19916;-72
2023/04/11 01:18:26;;;;;;;;;;;9.30;99.90;;;;;;5072791;28;20070;-72
2023/04/11 01:20:56;;;;;;;;;;;9.40;99.90;;;;;;5073807;28;20275;-72
2023/04/11 01:23:25;;;;;;;;;;;9.30;99.90;;;;;;5072451;28;19924;-72
2023/04/11 01:25:51;;;;;;;;;;;9.30;99.90;;;;;;5072988;28;19916;-73
2023/04/11 01:28:17;;;;;;;;;;;9.30;99.90;;;;;;5073828;28;20018;-73
2023/04/11 01:30:43;;;;;;;;;;;9.20;99.90;;;;;;5073795;28;19920;-73
2023/04/11 01:33:09;;;;;;;;;;;9.20;99.90;;;;;;5073838;28;19909;-72
2023/04/11 01:35:35;;;;;;;;;;;9.20;99.90;;;;;;5073481;28;19954;-73
2023/04/11 01:38:02;;;;;;;;;;;9.20;99.90;;;;;;5072852;28;19908;-74
2023/04/11 01:40:28;;;;;;;;;;;9.20;99.90;;;;;;5072467;28;20445;-73
2023/04/11 01:42:54;;;;;;;;;;;9.20;99.90;;;;;;5072438;28;19908;-72
2023/04/11 01:45:20;;;;;;;;;;;9.20;99.90;;;;;;5071993;28;19908;-73
2023/04/11 01:47:46;;;;;;;;;;;9.10;99.90;;;;;;5072753;28;19909;-72
2023/04/11 01:50:12;;;;;;;;;;;9.10;99.90;;;;;;5073722;28;19916;-73
2023/04/11 01:52:37;;;;;;;;;;;9.20;99.90;;;;;;5075746;28;19909;-71
2023/04/11 01:55:03;;;;;;;;;;;9.30;99.90;;;;;;5077555;28;19909;-72
2023/04/11 01:57:29;;;;;;;;;;;9.30;99.90;;;;;;5076407;28;19930;-72
2023/04/11 01:59:55;;;;;;;;;;;9.30;99.90;;;;;;5078023;28;20255;-72
2023/04/11 02:02:21;;;;;;;;;;;9.40;99.90;;;;;;5077883;28;19916;-72
2023/04/11 02:04:46;;;;;;;;;;;9.40;99.90;;;;;;5077061;28;19954;-72
2023/04/11 02:07:12;;;;;;;;;;;9.30;99.90;;;;;;5076257;28;19913;-74
2023/04/11 02:09:38;;;;;;;;;;;9.20;99.90;;;;;;5077121;28;19920;-72
2023/04/11 02:12:03;;;;;;;;;;;9.20;99.90;;;;;;5076028;28;19908;-72
2023/04/11 02:14:39;;;;;;;;;;;9.20;99.90;;;;;;5075897;28;19996;-72
2023/04/11 02:17:08;;;;;;;;;;;9.00;99.90;;;;;;5075960;28;19909;-72
2023/04/11 02:19:35;;;;;;;;;;;9.00;99.90;;;;;;5075778;28;19944;-71
2023/04/11 02:22:00;;;;;;;;;;;9.00;99.90;;;;;;5075117;28;19951;-72
2023/04/11 02:24:29;;;;;;;;;;;8.90;99.90;;;;;;5075342;28;20398;-72
2023/04/11 02:26:55;;;;;;;;;;;8.90;99.90;;;;;;5076654;28;19915;-73
2023/04/11 02:29:21;;;;;;;;;;;8.90;99.90;;;;;;5076620;28;19917;-72
2023/04/11 02:31:49;;;;;;;;;;;8.90;99.90;;;;;;5076641;28;19983;-72
2023/04/11 02:34:15;;;;;;;;;;;8.90;99.90;;;;;;5075239;28;19927;-73
2023/04/11 02:36:42;;;;;;;;;;;8.90;99.90;;;;;;5076244;28;20370;-73
2023/04/11 02:39:08;;;;;;;;;;;8.90;99.90;;;;;;5075242;28;19915;-72
2023/04/11 02:41:37;;;;;;;;;;;9.00;99.90;;;;;;5076961;28;20262;-73
2023/04/11 02:44:03;;;;;;;;;;;9.00;99.90;;;;;;5076614;28;19948;-72
2023/04/11 02:46:29;;;;;;;;;;;9.00;99.90;;;;;;5076666;28;19986;-72
2023/04/11 02:48:54;;;;;;;;;;;9.00;99.90;;;;;;5076414;28;19938;-72
2023/04/11 02:51:20;;;;;;;;;;;9.00;99.90;;;;;;5075445;28;19909;-72
2023/04/11 02:53:46;;;;;;;;;;;8.90;99.90;;;;;;5075144;28;20228;-72
2023/04/11 02:56:17;;;;;;;;;;;8.90;99.90;;;;;;5076476;28;19962;-72
2023/04/11 02:58:46;;;;;;;;;;;8.90;99.90;;;;;;5076421;28;20263;-72
2023/04/11 03:01:13;;;;;;;;;;;9.00;99.90;;;;;;5076393;28;19908;-73
2023/04/11 03:03:42;;;;;;;;;;;8.90;99.90;;;;;;5075607;28;19915;-74
2023/04/11 03:06:07;;;;;;;;;;;8.90;99.90;;;;;;5075882;28;19951;-73
2023/04/11 03:08:34;;;;;;;;;;;9.00;99.90;;;;;;5076143;28;19912;-72
2023/04/11 03:11:01;;;;;;;;;;;8.90;99.90;;;;;;5073777;28;20314;-72
2023/04/11 03:13:26;;;;;;;;;;;8.90;99.90;;;;;;5074169;28;19974;-72
2023/04/11 03:15:52;;;;;;;;;;;8.90;99.90;;;;;;5074278;28;20396;-72
2023/04/11 03:18:19;;;;;;;;;;;8.90;99.90;;;;;;5076062;28;19993;-72
2023/04/11 03:20:45;;;;;;;;;;;8.90;99.90;;;;;;5076575;28;19916;-72
2023/04/11 03:23:11;;;;;;;;;;;8.90;99.90;;;;;;5077279;28;19913;-73
2023/04/11 03:25:37;;;;;;;;;;;8.90;99.90;;;;;;5078242;28;19912;-72
2023/04/11 03:28:03;;;;;;;;;;;8.80;99.90;;;;;;5083361;28;19922;-72
2023/04/11 03:30:29;;;;;;;;;;;8.80;99.90;;;;;;5077551;28;19923;-72
2023/04/11 03:32:59;;;;;;;;;;;8.90;99.90;;;;;;5076438;28;19995;-72
2023/04/11 03:35:25;;;;;;;;;;;9.00;99.90;;;;;;5073922;28;19931;-73
2023/04/11 03:37:51;;;;;;;;;;;9.00;99.90;;;;;;5075611;28;19908;-72
2023/04/11 03:40:17;;;;;;;;;;;9.00;99.90;;;;;;5074482;28;19909;-72
2023/04/11 03:42:44;;;;;;;;;;;9.00;99.90;;;;;;5075556;28;19920;-73
2023/04/11 03:45:10;;;;;;;;;;;8.90;99.90;;;;;;5075168;28;19915;-73
2023/04/11 03:47:36;;;;;;;;;;;8.90;99.90;;;;;;5075238;28;19909;-72
2023/04/11 03:50:02;;;;;;;;;;;9.00;99.90;;;;;;5074176;28;20027;-73
2023/04/11 03:52:28;;;;;;;;;;;9.10;99.90;;;;;;5075997;28;20337;-73
2023/04/11 03:54:54;;;;;;;;;;;9.10;99.90;;;;;;5073719;28;19909;-71
2023/04/11 03:57:19;;;;;;;;;;;9.10;99.90;;;;;;5074210;28;19995;-72
2023/04/11 03:59:46;;;;;;;;;;;9.10;99.90;;;;;;5074330;28;19912;-72
2023/04/11 04:02:13;;;;;;;;;;;9.10;99.90;;;;;;5075287;28;19908;-73
2023/04/11 04:04:42;;;;;;;;;;;9.10;99.90;;;;;;5074857;28;19908;-73
2023/04/11 04:07:08;;;;;;;;;;;9.20;99.90;;;;;;5075863;28;19916;-73
2023/04/11 04:09:34;;;;;;;;;;;9.10;99.90;;;;;;5075639;28;20289;-73
2023/04/11 04:12:00;;;;;;;;;;;9.10;99.90;;;;;;5075491;28;19916;-73
2023/04/11 04:14:26;;;;;;;;;;;9.10;99.90;;;;;;5073499;28;20366;-72
2023/04/11 04:16:52;;;;;;;;;;;9.00;99.90;;;;;;5073802;28;19920;-72
2023/04/11 04:19:17;;;;;;;;;;;9.00;99.90;;;;;;5075207;28;19951;-73
2023/04/11 04:21:44;;;;;;;;;;;8.90;99.90;;;;;;5075426;28;19918;-72
2023/04/11 04:24:11;;;;;;;;;;;8.90;99.90;;;;;;5074783;28;19917;-73
2023/04/11 04:26:37;;;;;;;;;;;9.00;99.90;;;;;;5074879;28;19909;-72
2023/04/11 04:29:08;;;;;;;;;;;9.00;99.90;;;;;;5074676;28;20011;-73
2023/04/11 04:31:34;;;;;;;;;;;9.10;99.90;;;;;;5075243;28;19943;-72
2023/04/11 04:34:07;;;;;;;;;;;9.10;99.90;;;;;;5073051;28;19908;-73
2023/04/11 04:36:44;;;;;;;;;;;9.00;99.90;;;;;;5073495;28;19920;-72
2023/04/11 04:39:17;;;;;;;;;;;9.00;99.90;;;;;;5075049;28;20536;-73
2023/04/11 04:41:45;;;;;;;;;;;9.00;99.90;;;;;;5075015;28;19916;-73
2023/04/11 04:44:11;;;;;;;;;;;9.10;99.90;;;;;;5074296;28;19934;-73
2023/04/11 04:46:36;;;;;;;;;;;9.10;99.90;;;;;;5074211;28;19913;-73
2023/04/11 04:49:03;;;;;;;;;;;9.10;99.90;;;;;;5074794;28;20003;-72
2023/04/11 04:51:29;;;;;;;;;;;9.10;99.90;;;;;;5073194;28;20378;-73
2023/04/11 04:53:56;;;;;;;;;;;9.20;99.90;;;;;;5075113;28;19966;-72
2023/04/11 04:56:22;;;;;;;;;;;9.20;99.90;;;;;;5073765;28;20377;-72
2023/04/11 04:58:47;;;;;;;;;;;9.10;99.90;;;;;;5074547;28;19956;-72
2023/04/11 05:01:13;;;;;;;;;;;9.10;99.90;;;;;;5072764;28;19908;-73
2023/04/11 05:03:39;;;;;;;;;;;9.00;99.90;;;;;;5073040;28;19940;-73
2023/04/11 05:06:05;;;;;;;;;;;9.10;99.90;;;;;;5073571;28;19908;-72
2023/04/11 05:08:30;;;;;;;;;;;9.10;99.90;;;;;;5074198;28;19909;-72
2023/04/11 05:10:56;;;;;;;;;;;9.20;99.90;;;;;;5073066;28;19935;-72
2023/04/11 05:13:22;;;;;;;;;;;9.10;99.90;;;;;;5073091;28;19909;-73
2023/04/11 05:15:48;;;;;;;;;;;9.10;99.90;;;;;;5073580;28;20343;-74
2023/04/11 05:18:14;;;;;;;;;;;9.10;99.90;;;;;;5073057;28;19979;-73
2023/04/11 05:20:40;;;;;;;;;;;9.20;99.90;;;;;;5074040;28;19912;-72
2023/04/11 05:23:06;;;;;;;;;;;9.20;99.90;;;;;;5073635;28;19919;-73
2023/04/11 05:25:31;;;;;;;;;;;9.20;99.90;;;;;;5072282;28;19908;-71
2023/04/11 05:27:57;;;;;;;;;;;9.20;99.90;;;;;;5073923;28;19908;-72
2023/04/11 05:30:23;;;;;;;;;;;9.30;99.90;;;;;;5073062;28;19916;-72
2023/04/11 05:32:49;;;;;;;;;;;9.40;99.90;;;;;;5073913;28;19909;-73
2023/04/11 05:35:14;;;;;;;;;;;9.40;99.90;;;;;;5073656;28;19963;-73
2023/04/11 05:37:41;;;;;;;;;;;9.50;99.90;;;;;;5072907;28;19920;-72
2023/04/11 05:40:08;;;;;;;;;;;9.50;99.90;;;;;;5074264;28;19908;-72
2023/04/11 05:42:34;;;;;;;;;;;9.60;99.90;;;;;;5074346;28;19930;-72
2023/04/11 05:45:00;;;;;;;;;;;9.60;99.90;;;;;;5072482;28;19909;-72
2023/04/11 05:47:25;;;;;;;;;;;9.70;99.90;;;;;;5072858;28;19999;-72
2023/04/11 05:49:51;;;;;;;;;;;9.70;99.90;;;;;;5072493;28;19916;-72
2023/04/11 05:52:17;;;;;;;;;;;9.70;99.90;;;;;;5072842;28;19908;-73
2023/04/11 05:54:42;;;;;;;;;;;9.80;99.90;;;;;;5071700;28;19913;-72
2023/04/11 05:57:08;;;;;;;;;;;9.90;99.90;;;;;;5073948;28;19957;-72
2023/04/11 05:59:34;;;;;;;;;;;10.00;99.90;;;;;;5073630;28;19913;-72
2023/04/11 06:02:00;;;;;;;;;;;10.00;99.90;;;;;;5073835;28;19916;-72
2023/04/11 06:04:26;;;;;;;;;;;10.00;99.90;;;;;;5072735;28;19912;-73
2023/04/11 06:06:52;;;;;;;;;;;10.30;99.90;;;;;;5073249;28;19912;-73
2023/04/11 06:09:18;;;;;;;;;;;10.50;99.90;;;;;;5072087;28;19913;-72
2023/04/11 06:11:44;;;;;;;;;;;10.60;99.90;;;;;;5072159;28;19915;-73
2023/04/11 06:14:09;;;;;;;;;;;10.80;99.90;;;;;;5072384;28;19909;-73
2023/04/11 06:16:37;;;;;;;;;;;10.90;99.90;;;;;;5071508;28;19909;-71
2023/04/11 06:19:03;;;;;;;;;;;10.90;99.90;;;;;;5073518;28;19919;-72
2023/04/11 06:21:30;;;;;;;;;;;10.90;99.90;;;;;;5071860;28;19989;-73
2023/04/11 06:24:01;;;;;;;;;;;11.00;99.90;;;;;;5073540;28;19924;-74
2023/04/11 06:26:27;;;;;;;;;;;11.00;99.90;;;;;;5073402;28;19908;-72
2023/04/11 06:28:52;;;;;;;;;;;11.20;99.90;;;;;;5072298;28;20293;-73
2023/04/11 06:31:18;;;;;;;;;;;11.20;99.90;;;;;;5071840;28;20394;-72
2023/04/11 06:33:43;;;;;;;;;;;11.20;99.90;;;;;;5072067;28;19964;-72
2023/04/11 06:36:09;;;;;;;;;;;11.30;99.90;;;;;;5073062;28;19915;-72
2023/04/11 06:38:36;;;;;;;;;;;11.30;99.90;;;;;;5071924;28;20264;-72
2023/04/11 06:41:02;;;;;;;;;;;11.30;99.90;;;;;;5076740;28;19908;-72
2023/04/11 06:43:28;;;;;;;;;;;11.30;99.90;;;;;;5075635;28;19953;-72
2023/04/11 06:45:53;;;;;;;;;;;11.40;99.90;;;;;;5074828;28;19909;-74
2023/04/11 06:48:19;;;;;;;;;;;11.50;99.90;;;;;;5076359;28;19908;-73
2023/04/11 06:50:47;;;;;;;;;;;11.60;99.90;;;;;;5076501;28;19913;-73
2023/04/11 06:53:12;;;;;;;;;;;12.10;99.90;;;;;;5076778;28;19913;-72
2023/04/11 06:55:38;;;;;;;;;;;12.10;99.90;;;;;;5077148;28;19908;-72
2023/04/11 06:58:03;;;;;;;;;;;12.10;99.90;;;;;;5076898;28;19909;-73
2023/04/11 07:00:29;;;;;;;;;;;12.10;99.90;;;;;;5078247;28;19920;-73
2023/04/11 07:02:55;;;;;;;;;;;12.20;99.90;;;;;;5075862;28;19962;-73
2023/04/11 07:05:20;;;;;;;;;;;12.10;99.90;;;;;;5074955;28;19909;-73
2023/04/11 07:07:46;;;;;;;;;;;12.10;99.90;;;;;;5077944;28;19908;-74
2023/04/11 07:10:12;;;;;;;;;;;12.10;99.90;;;;;;5079441;28;19913;-74
2023/04/11 07:12:38;;;;;;;;;;;12.20;99.90;;;;;;5076484;28;19909;-74
2023/04/11 07:15:03;;;;;;;;;;;12.30;99.90;;;;;;5076085;28;19908;-73
2023/04/11 07:17:30;;;;;;;;;;;12.40;99.90;;;;;;5074541;28;19908;-73
2023/04/11 07:19:55;;;;;;;;;;;12.50;99.90;;;;;;5074622;28;19909;-73
2023/04/11 07:22:22;;;;;;;;;;;12.60;99.90;;;;;;5076376;28;19908;-74
2023/04/11 07:24:51;;;;;;;;;;;12.60;99.90;;;;;;5075521;28;19917;-73
2023/04/11 07:27:17;;;;;;;;;;;12.70;99.90;;;;;;5076536;28;19950;-75
2023/04/11 07:29:43;;;;;;;;;;;12.90;99.90;;;;;;5075997;28;19950;-74
2023/04/11 07:32:09;;;;;;;;;;;13.00;99.90;;;;;;5076300;28;19909;-74
2023/04/11 07:34:34;;;;;;;;;;;13.10;99.90;;;;;;5075536;28;19948;-73
2023/04/11 07:37:00;;;;;;;;;;;13.00;99.90;;;;;;5075602;28;20404;-73
2023/04/11 07:39:26;;;;;;;;;;;13.10;99.90;;;;;;5075701;28;19955;-73
2023/04/11 07:41:52;;;;;;;;;;;13.10;99.90;;;;;;5074536;28;19966;-73
2023/04/11 07:44:18;;;;;;;;;;;13.10;99.90;;;;;;5075987;28;19909;-73
2023/04/11 07:46:43;;;;;;;;;;;13.10;99.90;;;;;;5075539;28;20358;-74
2023/04/11 07:49:09;;;;;;;;;;;13.10;99.90;;;;;;5074702;28;19987;-72
2023/04/11 07:51:38;;;;;;;;;;;13.10;99.90;;;;;;5074777;28;20374;-73
2023/04/11 07:54:04;;;;;;;;;;;13.10;99.90;;;;;;5075345;28;19932;-73
2023/04/11 07:56:30;;;;;;;;;;;13.10;99.90;;;;;;5077131;28;20381;-75
2023/04/11 07:58:57;;;;;;;;;;;13.30;99.90;;;;;;5077560;28;19951;-74
2023/04/11 08:01:24;;;;;;;;;;;13.30;99.90;;;;;;5075691;28;19916;-74
2023/04/11 08:03:50;;;;;;;;;;;13.30;99.90;;;;;;5076495;28;20299;-74
2023/04/11 08:06:16;;;;;;;;;;;13.40;99.90;;;;;;5075890;28;19914;-74
2023/04/11 08:08:42;;;;;;;;;;;13.40;99.90;;;;;;5075119;28;19912;-73
2023/04/11 08:11:07;;;;;;;;;;;13.40;99.90;;;;;;5076150;28;19979;-74
2023/04/11 08:13:33;;;;;;;;;;;13.50;99.90;;;;;;5075471;28;19913;-74
2023/04/11 08:15:58;;;;;;;;;;;13.60;99.90;;;;;;5074565;28;19943;-74
2023/04/11 08:18:24;;;;;;;;;;;13.70;99.90;;;;;;5074316;28;19915;-73
2023/04/11 08:20:50;;;;;;;;;;;13.80;99.90;;;;;;5075681;28;19909;-73
2023/04/11 08:23:18;;;;;;;;;;;13.90;99.90;;;;;;5074458;28;19995;-74
2023/04/11 08:25:44;;;;;;;;;;;14.00;99.90;;;;;;5075138;28;19912;-73
2023/04/11 08:28:11;;;;;;;;;;;14.00;99.90;;;;;;5074535;28;19916;-73
2023/04/11 08:30:36;;;;;;;;;;;14.10;99.90;;;;;;5075226;28;19913;-73
2023/04/11 08:33:02;;;;;;;;;;;14.10;99.90;;;;;;5075222;28;19919;-73
2023/04/11 08:35:28;;;;;;;;;;;14.10;99.90;;;;;;5075089;28;20430;-73
2023/04/11 08:37:53;;;;;;;;;;;14.10;99.90;;;;;;5075247;28;19983;-73
2023/04/11 08:40:19;;;;;;;;;;;14.20;99.90;;;;;;5073798;28;19920;-75
2023/04/11 08:42:45;;;;;;;;;;;14.20;99.90;;;;;;5075086;28;20018;-73
2023/04/11 08:45:10;;;;;;;;;;;14.30;99.90;;;;;;5074168;28;19924;-73
2023/04/11 08:47:36;;;;;;;;;;;14.30;99.90;;;;;;5074728;28;19908;-74
2023/04/11 08:50:02;;;;;;;;;;;14.30;99.90;;;;;;5073733;28;19913;-75
2023/04/11 08:52:29;;;;;;;;;;;14.40;99.90;;;;;;5075334;28;19908;-73
2023/04/11 08:54:55;;;;;;;;;;;14.50;99.90;;;;;;5074645;28;20424;-73
2023/04/11 08:57:33;;;;;;;;;;;14.60;99.90;;;;;;5073082;28;19913;-74
2023/04/11 09:00:06;;;;;;;;;;;14.60;99.90;;;;;;5074807;28;19931;-73
2023/04/11 09:02:32;;;;;;;;;;;14.60;99.90;;;;;;5074391;28;20240;-74
2023/04/11 09:04:58;;;;;;;;;;;14.60;99.90;;;;;;5073749;28;20399;-73
2023/04/11 09:07:24;;;;;;;;;;;14.60;99.90;;;;;;5072448;28;19946;-73
2023/04/11 09:09:49;;;;;;;;;;;14.70;99.90;;;;;;5073969;28;19919;-73
2023/04/11 09:12:18;;;;;;;;;;;14.70;99.90;;;;;;5074101;28;19908;-73
2023/04/11 09:14:44;;;;;;;;;;;14.70;99.90;;;;;;5072012;28;19908;-72
2023/04/11 09:17:12;;;;;;;;;;;14.70;99.90;;;;;;5072450;28;19916;-74
2023/04/11 09:19:38;;;;;;;;;;;14.70;99.90;;;;;;5074310;28;19908;-73
2023/04/11 09:22:04;;;;;;;;;;;14.70;99.90;;;;;;5073138;28;19961;-73
2023/04/11 09:24:30;;;;;;;;;;;14.80;99.90;;;;;;5072085;28;20301;-72
2023/04/11 09:27:08;;;;;;;;;;;14.80;99.90;;;;;;5071311;28;19909;-73
2023/04/11 09:29:37;;;;;;;;;;;14.80;99.90;;;;;;5072371;28;20299;-74
2023/04/11 09:32:03;;;;;;;;;;;14.80;99.90;;;;;;5074667;28;20022;-74
2023/04/11 09:34:28;;;;;;;;;;;14.90;99.90;;;;;;5074472;28;20358;-73
2023/04/11 09:36:55;;;;;;;;;;;14.90;99.90;;;;;;5075520;28;19939;-74
2023/04/11 09:39:21;;;;;;;;;;;14.90;99.90;;;;;;5074695;28;19909;-74
2023/04/11 09:41:46;;;;;;;;;;;14.90;99.90;;;;;;5073679;28;19908;-74
2023/04/11 09:44:12;;;;;;;;;;;14.90;99.90;;;;;;5075525;28;19913;-74
2023/04/11 09:46:57;;;;;;;;;;;15.00;99.90;;;;;;5073369;28;20012;-74
2023/04/11 09:49:23;;;;;;;;;;;15.10;99.90;;;;;;5075129;28;19916;-74
2023/04/11 09:51:52;;;;;;;;;;;15.00;99.90;;;;;;5075158;28;19943;-74
2023/04/11 09:54:21;;;;;;;;;;;15.00;99.90;;;;;;5074196;28;19908;-74
2023/04/11 09:56:47;;;;;;;;;;;14.90;99.90;;;;;;5074577;28;19909;-74
2023/04/11 09:59:14;;;;;;;;;;;15.00;99.90;;;;;;5075080;28;19908;-74
2023/04/11 10:01:40;;;;;;;;;;;15.10;99.90;;;;;;5074243;28;19908;-73
2023/04/11 10:04:06;;;;;;;;;;;15.30;99.90;;;;;;5073820;28;19915;-73
2023/04/11 10:06:50;;;;;;;;;;;15.40;99.90;;;;;;5072112;28;19912;-74
2023/04/11 10:09:17;;;;;;;;;;;15.40;99.90;;;;;;5072294;28;19912;-73
2023/04/11 10:11:43;;;;;;;;;;;15.60;99.90;;;;;;5073645;28;20008;-73
2023/04/11 10:14:28;;;;;;;;;;;15.70;99.90;;;;;;5073263;28;20377;-73
2023/04/11 10:17:15;;;;;;;;;;;15.70;99.90;;;;;;5076485;28;19913;-73
2023/04/11 10:19:41;;;;;;;;;;;15.70;99.90;;;;;;5076770;28;19920;-73
2023/04/11 10:22:07;;;;;;;;;;;15.70;99.90;;;;;;5076565;28;19944;-73
2023/04/11 10:24:33;;;;;;;;;;;15.70;99.90;;;;;;5075187;28;19985;-74
2023/04/11 10:27:02;;;;;;;;;;;15.70;99.90;;;;;;5076617;28;19915;-73
2023/04/11 10:29:32;;;;;;;;;;;15.80;99.90;;;;;;5079078;28;20343;-74
2023/04/11 10:32:10;;;;;;;;;;;15.80;99.90;;;;;;5080483;28;19912;-76
2023/04/11 10:34:37;;;;;;;;;;;15.80;99.90;;;;;;5078359;28;20271;-76
2023/04/11 10:37:07;;;;;;;;;;;15.80;99.90;;;;;;5077556;28;20297;-73
2023/04/11 10:39:51;;;;;;;;;;;15.90;99.90;;;;;;5076260;28;19920;-73
2023/04/11 10:42:30;;;;;;;;;;;15.90;99.90;;;;;;5076586;28;19954;-75
2023/04/11 10:45:14;;;;;;;;;;;15.80;99.90;;;;;;5076227;28;20007;-75
2023/04/11 10:47:41;;;;;;;;;;;15.70;99.90;;;;;;5075193;28;19908;-74
2023/04/11 10:50:40;;;;;;;;;;;15.70;99.90;;;;;;5076454;28;19919;-76
2023/04/11 10:53:08;;;;;;;;;;;15.90;99.90;;;;;;5042250;28;19909;-73
2023/04/11 10:55:43;;;;;;;;;;;15.90;99.90;;;;;;5075894;28;19931;-73
2023/04/11 10:58:18;;;;;;;;;;;15.80;99.90;;;;;;5076257;28;19909;-75
2023/04/11 11:00:50;;;;;;;;;;;15.70;99.90;;;;;;5075428;28;19912;-74
2023/04/11 11:03:21;;;;;;;;;;;15.70;99.90;;;;;;5076784;28;19908;-74
2023/04/11 11:05:55;;;;;;;;;;;15.70;99.90;;;;;;5074217;28;20274;-74
2023/04/11 11:08:29;;;;;;;;;;;15.80;99.90;;;;;;5074974;28;19908;-74
2023/04/11 11:10:58;;;;;;;;;;;16.00;99.90;;;;;;5075932;28;19957;-73
2023/04/11 11:13:36;;;;;;;;;;;16.00;99.90;;;;;;5075568;28;19989;-74
2023/04/11 11:16:02;;;;;;;;;;;16.00;99.90;;;;;;5075835;28;20309;-73
2023/04/11 11:18:27;;;;;;;;;;;16.00;99.90;;;;;;5076298;28;19909;-74
2023/04/11 11:20:54;;;;;;;;;;;16.00;99.90;;;;;;5076069;28;19908;-74
2023/04/11 11:23:19;;;;;;;;;;;16.00;99.90;;;;;;5075410;28;20011;-74
2023/04/11 11:25:51;;;;;;;;;;;16.00;99.90;;;;;;5074965;28;19952;-74
2023/04/11 11:28:16;;;;;;;;;;;16.10;99.90;;;;;;5076840;28;19915;-74
2023/04/11 11:30:49;;;;;;;;;;;16.20;99.90;;;;;;5075602;28;19995;-74
2023/04/11 11:33:16;;;;;;;;;;;16.30;99.90;;;;;;5075491;28;19909;-74
2023/04/11 11:35:51;;;;;;;;;;;16.30;99.90;;;;;;5075729;28;19908;-76
2023/04/11 11:38:17;;;;;;;;;;;16.30;99.90;;;;;;5074384;28;20049;-74
2023/04/11 11:40:44;;;;;;;;;;;16.40;99.90;;;;;;5074156;28;19912;-73
2023/04/11 11:43:10;;;;;;;;;;;16.50;99.90;;;;;;5074770;28;19909;-76
2023/04/11 11:45:35;;;;;;;;;;;16.50;99.90;;;;;;5075254;28;20061;-79
2023/04/11 11:48:01;;;;;;;;;;;16.60;99.90;;;;;;5076528;28;19916;-76
2023/04/11 11:50:31;;;;;;;;;;;16.60;99.90;;;;;;5076320;28;19916;-75
2023/04/11 11:53:13;;;;;;;;;;;16.60;99.90;;;;;;5074784;28;19916;-76
2023/04/11 11:55:39;;;;;;;;;;;16.70;99.90;;;;;;5074425;28;19922;-78
2023/04/11 11:58:05;;;;;;;;;;;16.60;99.90;;;;;;5075967;28;19909;-76
2023/04/11 12:00:33;;;;;;;;;;;16.60;99.90;;;;;;5076385;28;20385;-76
2023/04/11 12:03:01;;;;;;;;;;;16.60;99.90;;;;;;5076597;28;19963;-76
2023/04/11 12:05:31;;;;;;;;;;;16.60;99.90;;;;;;5076033;28;19915;-76
2023/04/11 12:07:59;;;;;;;;;;;16.60;99.90;;;;;;5077089;28;19909;-76
2023/04/11 12:10:26;;;;;;;;;;;16.60;99.90;;;;;;5076278;28;19913;-79
2023/04/11 12:12:52;;;;;;;;;;;16.60;99.90;;;;;;5075979;28;20359;-76
2023/04/11 12:15:18;;;;;;;;;;;16.70;99.90;;;;;;5074798;28;19948;-77
2023/04/11 12:17:48;;;;;;;;;;;16.70;99.90;;;;;;5074875;28;20409;-76
2023/04/11 12:20:14;;;;;;;;;;;16.80;99.90;;;;;;5076541;28;19908;-76
2023/04/11 12:22:40;;;;;;;;;;;17.00;99.90;;;;;;5076094;28;19916;-75
2023/04/11 12:25:09;;;;;;;;;;;17.10;99.90;;;;;;5076539;28;19912;-79
2023/04/11 12:27:39;;;;;;;;;;;17.20;99.90;;;;;;5075242;28;19920;-77
2023/04/11 12:30:05;;;;;;;;;;;17.20;99.90;;;;;;5074622;28;19954;-76
2023/04/11 12:32:33;;;;;;;;;;;17.30;99.90;;;;;;5074924;28;19972;-76
2023/04/11 12:35:02;;;;;;;;;;;17.30;99.90;;;;;;5075900;28;21420;-76
2023/04/11 12:37:28;;;;;;;;;;;17.20;99.90;;;;;;5077146;28;19919;-76
2023/04/11 12:39:53;;;;;;;;;;;17.40;99.90;;;;;;5075838;28;19913;-76
2023/04/11 12:42:19;;;;;;;;;;;17.50;99.90;;;;;;5077698;28;19908;-77
2023/04/11 12:44:45;;;;;;;;;;;17.60;99.90;;;;;;5074891;28;20290;-76
2023/04/11 12:47:11;;;;;;;;;;;17.60;99.90;;;;;;5075777;28;20007;-76
2023/04/11 12:49:37;;;;;;;;;;;17.50;99.90;;;;;;5076242;28;20017;-75
2023/04/11 12:52:03;;;;;;;;;;;17.50;99.90;;;;;;5076505;28;19990;-76
2023/04/11 12:54:28;;;;;;;;;;;17.60;99.90;;;;;;5075760;28;19914;-76
2023/04/11 12:56:54;;;;;;;;;;;17.40;99.90;;;;;;5075222;28;19966;-76
2023/04/11 12:59:20;;;;;;;;;;;17.30;99.90;;;;;;5075448;28;19931;-76
2023/04/11 13:01:45;;;;;;;;;;;17.20;99.90;;;;;;5074418;28;19962;-75
2023/04/11 13:04:11;;;;;;;;;;;17.20;99.90;;;;;;5074214;28;19955;-76
2023/04/11 13:06:37;;;;;;;;;;;17.20;99.90;;;;;;5073471;28;19936;-76
2023/04/11 13:09:04;;;;;;;;;;;17.10;99.90;;;;;;5074685;28;19920;-75
2023/04/11 13:11:30;;;;;;;;;;;17.30;99.90;;;;;;5076129;28;19916;-75
2023/04/11 13:13:56;;;;;;;;;;;17.30;99.90;;;;;;5076696;28;19909;-74
2023/04/11 13:16:22;;;;;;;;;;;17.30;99.90;;;;;;5074706;28;19909;-74
2023/04/11 13:18:48;;;;;;;;;;;17.20;99.90;;;;;;5075759;28;20322;-75
2023/04/11 13:21:17;;;;;;;;;;;17.20;99.90;;;;;;5075875;28;19996;-75
2023/04/11 13:23:42;;;;;;;;;;;17.20;99.90;;;;;;5073658;28;20339;-74
2023/04/11 13:26:08;;;;;;;;;;;17.20;99.90;;;;;;5073545;28;19908;-75
2023/04/11 13:28:34;;;;;;;;;;;17.20;99.90;;;;;;5074819;28;19932;-76
2023/04/11 13:31:00;;;;;;;;;;;17.20;99.90;;;;;;5075730;28;19912;-74
2023/04/11 13:33:26;;;;;;;;;;;17.20;99.90;;;;;;5067489;28;19920;-75
2023/04/11 13:35:51;;;;;;;;;;;17.10;99.90;;;;;;5061134;28;20286;-75
2023/04/11 13:38:17;;;;;;;;;;;17.20;99.90;;;;;;5065417;28;19912;-75
2023/04/11 13:40:45;;;;;;;;;;;17.30;99.90;;;;;;5075814;28;19934;-73
2023/04/11 13:43:11;;;;;;;;;;;17.20;99.90;;;;;;5079827;28;19909;-73
2023/04/11 13:45:37;;;;;;;;;;;17.10;99.90;;;;;;5077744;28;19908;-74
2023/04/11 13:48:02;;;;;;;;;;;17.10;99.90;;;;;;5063167;28;19917;-73
2023/04/11 13:50:28;;;;;;;;;;;17.20;99.90;;;;;;5072654;28;20019;-72
2023/04/11 13:52:54;;;;;;;;;;;17.20;99.90;;;;;;5078799;28;20411;-73
2023/04/11 13:55:19;;;;;;;;;;;17.20;99.90;;;;;;5077800;28;20382;-73
2023/04/11 13:57:45;;;;;;;;;;;17.20;99.90;;;;;;5070354;28;20236;-72
2023/04/11 14:00:11;;;;;;;;;;;17.20;99.90;;;;;;5070219;28;20110;-73
2023/04/11 14:02:38;;;;;;;;;;;17.20;99.90;;;;;;5062913;28;19928;-72
2023/04/11 14:05:04;;;;;;;;;;;17.10;99.90;;;;;;5068294;28;19917;-73
2023/04/11 14:07:30;;;;;;;;;;;17.10;99.90;;;;;;5072069;28;20410;-72
2023/04/11 14:09:56;;;;;;;;;;;17.00;99.90;;;;;;5068114;28;19924;-73
2023/04/11 14:12:24;;;;;;;;;;;17.00;99.90;;;;;;5068410;28;19931;-72
2023/04/11 14:14:50;;;;;;;;;;;17.00;99.90;;;;;;5061683;28;19948;-74
2023/04/11 14:17:16;;;;;;;;;;;17.00;99.90;;;;;;5074230;28;19919;-73
2023/04/11 14:19:41;;;;;;;;;;;16.90;99.90;;;;;;5076164;28;19900;-73